Timeline UpdatesTrip UpdatesNews PostsPvt PostsTravel TipsAdmin PostsConv PostsFollowed PostsChat RequestsBlog PostsPNR Posts

Disclaimer
Search
 
 
Wed Apr 16, 2014 15:41:28 ISTHomeTrainsΣChainsAtlasPNRForumGalleryNewsFAQTripsMembersLoginFeedback
No Recent News for this Train
Other Trains in the News **new
Latest...
★KR ♥ Lover ♥ Forever★ Entry# 707524 first 3 GS are of Milatry. Its full with police
Thu Mar 28, 2013 (10:36PM)
⇐ Return Journey: Train# 51154

51153/Mumbai-Bhusaval Passenger (UnReserved)

Sep 11 2013 (11:12PM)
Change Departure Station:
Change Arrival Station:
Post a Train Travel TipPost a Train Travel Tip **new
Post a Comment/Question/Picture/VideoPost a Comment/Question/Picture/Video
Pantry/Catering
✕ NO Pantry Car
✕ NO Catering
RSA - Rake Sharing
No RSA.
Rake/Coach Composition
Entry# 145371 Author: ® राहुल कुमार जैन ; Engine, SLR, GS, GS, GS, GS, GS, GS, GS, GS, GS, GS, GS, GS, SLR= 14 coach
Loco
CSTM-IGP : WCAM-3 KYN, IGP-BSL : WAP-4 BSL.
News    PNR    Forum    Time-Table    Availability    Fare Chart    Map    Arr/Dep History    Trips    Gallery    ΣChains    X/O    Timeline    
Travel Time: 12h 40m    49 halts    Distance: 443 km    Avg Speed: 34 km/hr
Type: Passenger
Zone: CR/Central
Departs @ 05:20 (Avg 2m late)
Platform# ???
SMTWTFS
Mumbai CST/CSTM 
Arrives @ 18:00 (Avg 37m late)
Platform# 1
SMTWTFS
Bhusaval Junction/BSL 

49 halts. 75 intermediate Stations between Mumbai CST and Bhusaval Junction

Show ALL intermediate Stations  Show Old Time-Table

#CodeStation NameX/OArrivesAvgDepartsAvgHaltPFDay#KmSpeedElevZoneAddress
1CSTM»Mumbai CST (18)»  -05:20+2--10.010410mCRMumbai 400001, Maharashtra
2DRMumbai Dadar Central (8)  05:25+905:30+85m418.6547mCRMumbai 400014, Maharashtra
3TNAThane (10)X  05:57+406:00+43m5132.96110mCRThane, Maharashtra
4KYNKalyan Junction (8)X  06:20+806:25+125m4153.11610mCRKalyan 421301, Maharashtra
5SHADShahad (2)X  06:37+1206:38+121m1156.34512mCRUlhasnagar, Maharashtra
6ABYAmbivli (2)  06:42+1306:43+131m1159.35822mCRAmbivli, Maharashtra
7TLATitwala (3)X  06:48+1306:49+221m--164.14517mCRTitwala, Maharashtra
8KDVKhadavli (3)XO  06:59+2107:00+581m--171.7823mCRKhadavli, Maharashtra
9VSDVasind (2)  08:00+1008:01+101m--179.36032mCRVasind, Maharashtra
10ASOAsangaon (3)X  08:07+1008:08+101m--185.35377mCRDist. Thane, Maharashtra
11ATGAtgaon (2)  08:19+1008:20+101m--195.159147mCRAtgaon, Maharashtra
12THSThansitX  08:26+1108:27+111m--1101.046184mCRNational Highway 3, Maharashtra
13KEKhardi (2)X  08:35+808:36+81m--1107.298232mCRKhardi, Maharashtra
14OMBOombermaliX  08:40+1008:41+101m--1113.737248mCROombermali, Maharashtra
15KSRAKasara (4)X  08:52+708:53+131m11120.521290mCRDist. Thane 421602, Maharashtra
16IGPIgatpuri (4)XO  09:35+209:40+115m11134.918589mCRIgatpuri 422403, Maharashtra
17GOGhoti (2)X  10:07+210:08+41m--1143.084581mCRGhoti, Maharashtra
18PIPadli (1)X  10:14+710:15+71m11151.385591mCRNational Highway 3, Maharashtra
19AVAsvali (2)XOO  10:21+910:23+122m--1159.893578mCRAsvali, Maharashtra
20LTLahavit (1)O  10:31+1210:32+141m11172.245587mCRWadhiware, Maharashtra
21DVLDevlali (3)O  10:42+1410:43+161m11179.8-561mCRDist. Nashik 422401, Maharashtra
22NKNasik Road (3)XO  10:45+1810:50+195m11185.632563mCRNashik 422101, Maharashtra
23ODHAOdha (2)  11:12+2011:13+261m11197.253571mCRDist. Nashik, Maharashtra
24KWKhervadi (2)  11:21+2511:22+261m11204.251553mCRKherwadi, Maharashtra
25KBSNKasbe Sukene (3)XO  11:30+2511:31+281m--1210.945548mCRKasbe Sukene, Maharashtra
26NRNiphad (3)X  11:39+2711:40+331m11216.952550mCRNashik, Maharashtra
27UGNUgaon (2)X  11:48+3211:49+331m11223.959568mCRUgaon, Maharashtra
28LSLasalgaon (3)X  11:59+3012:00+361m--1233.856592mCRLasalgaon, Maharashtra
29SUMSummit (2)XO  12:13+3612:14+431m11245.913632mCRSummit, Maharashtra
30MMRManmad Junction (6)  13:10+1513:15+275m21258.338580mCRManmad 423104, Maharashtra
31PNVPanevadi (2)  13:24+3113:25+311m--1264.166561mCRPanevadi, Maharashtra
32HSLHisvahal (2)  13:32+3213:33+331m--1271.855540mCRHisvahal, Maharashtra
33PJNPanjhan (2)X  13:39+3413:40+341m--1277.243514mCRPanjhan, Maharashtra
34NGNNandgaon (3)X  13:49+3313:50+351m--1283.781476mCRNandgaon, Maharashtra
35PKEPimpar Khed (2)  13:58+3813:59+381m--1294.565462mCRPimpar Khed, Maharashtra
36NINaydongri (2)  14:08+4114:09+421m--1304.356427mCRNaydongri, Maharashtra
37RHNERohini (2)  14:14+4314:15+431m--1309.090422mCRRohini, Maharashtra
38HPRHirapur (2)X  14:21+4314:22+441m--1318.059373mCRHirapur, Maharashtra
39CSNChalisgaon Junction (3)X  14:30+3414:35+335m--1325.870352mCRChalisgaon 424101, Maharashtra
40VGLVaghli (2)  14:43+4414:44+451m--1335.2118331mCRVaghli, Maharashtra
41KJKajgaon (3)X  14:49+4714:51+472m--1345.167297mCRKajgaon, Maharashtra
42NGDNagardevla (2)X  14:57+4814:58+481m--1351.872280mCRNagardevla, Maharashtra
43GAAGalan (2)X  15:05+4915:06+571m--1360.257282mCRGalan, Maharashtra
44PCPachora Junction (4)X  15:17+5615:18+1:021m--1370.789264mCRPachora 424201, Maharashtra
45PHQPardhande (2)X  15:23+1:0615:24+1:071m--1378.163243mCRPardhande, Maharashtra
46MYJMaheji (2)X  15:31+1:0715:32+1:081m--1385.579247mCRJalgaon, Maharashtra
47MWDMhasavad (3)O  15:41+1:0815:42+1:131m--1397.311220mCRMhasavad, Maharashtra
48SSShirsoli (2)  16:33+3916:34+421m--1406.664211mCRShirsoli, Maharashtra
49JLJalgaon Junction (4)XO  16:45+4716:50+465m31418.420213mCRJalgaon 425001, Maharashtra
50BDIBhadli (2)  17:24+2917:25+311m--1429.922211mCRBhadli, Maharashtra
51BSL•Bhusaval Junction (8)•  18:00+37-11442.5-208mCRBhusaval 425201, Maharashtra
Scroll to Top
Scroll to Bottom